createdAt,value
2018-10-15T00:00:14.898Z,56.70
2018-10-15T00:02:42.494Z,56.80
2018-10-15T00:05:09.981Z,56.70
2018-10-15T00:07:37.431Z,56.80
2018-10-15T00:10:06.243Z,56.70
2018-10-15T00:12:33.775Z,56.80
2018-10-15T00:15:24.920Z,56.90
2018-10-15T00:17:52.400Z,56.80
2018-10-15T00:20:20.543Z,56.80
2018-10-15T00:22:48.423Z,56.80
2018-10-15T00:25:16.168Z,56.90
2018-10-15T00:27:43.636Z,57.00
2018-10-15T00:30:12.106Z,57.00
2018-10-15T00:32:40.388Z,56.90
2018-10-15T00:35:08.759Z,56.90
2018-10-15T00:37:36.948Z,56.80
2018-10-15T00:40:04.432Z,56.80
2018-10-15T00:42:32.362Z,56.80
2018-10-15T00:44:59.868Z,56.80
2018-10-15T00:47:27.358Z,56.80
2018-10-15T00:49:54.837Z,56.80
2018-10-15T00:52:22.350Z,56.70
2018-10-15T00:54:49.860Z,56.70
2018-10-15T00:57:17.349Z,56.70
2018-10-15T00:59:44.851Z,56.80
2018-10-15T01:02:12.324Z,56.80
2018-10-15T01:04:39.807Z,57.40
2018-10-15T01:07:07.325Z,56.90
2018-10-15T01:09:34.921Z,56.90
2018-10-15T01:12:02.449Z,57.00
2018-10-15T01:14:30.807Z,57.10
2018-10-15T01:16:58.583Z,57.20
2018-10-15T01:19:26.086Z,57.40
2018-10-15T01:21:54.100Z,57.60
2018-10-15T01:24:21.647Z,57.70
2018-10-15T01:26:49.169Z,57.90
2018-10-15T01:29:16.626Z,58.10
2018-10-15T01:31:44.102Z,58.40
2018-10-15T01:34:12.005Z,58.50
2018-10-15T01:36:39.640Z,58.30
2018-10-15T01:39:11.783Z,58.10
2018-10-15T01:41:39.332Z,57.80
2018-10-15T01:44:06.839Z,57.70
2018-10-15T01:46:34.358Z,57.50
2018-10-15T01:49:02.222Z,57.50
2018-10-15T01:51:29.706Z,57.50
2018-10-15T01:53:57.168Z,57.40
2018-10-15T01:56:24.649Z,57.30
2018-10-15T01:58:52.134Z,57.30
2018-10-15T02:01:19.881Z,57.30
2018-10-15T02:03:47.635Z,57.30
2018-10-15T02:06:15.142Z,57.40
2018-10-15T02:08:42.638Z,57.40
2018-10-15T02:11:10.078Z,57.40
2018-10-15T02:13:37.595Z,57.30
2018-10-15T02:16:05.421Z,57.40
2018-10-15T02:18:33.029Z,57.50
2018-10-15T02:21:00.597Z,57.50
2018-10-15T02:23:28.047Z,57.60
2018-10-15T02:25:55.526Z,57.70
2018-10-15T02:28:23.095Z,57.70
2018-10-15T02:30:50.540Z,57.70
2018-10-15T02:33:18.028Z,57.70
2018-10-15T02:35:45.521Z,57.70
2018-10-15T02:38:12.998Z,57.60
2018-10-15T02:40:40.554Z,57.70
2018-10-15T02:43:08.033Z,57.70
2018-10-15T02:45:35.533Z,57.90
2018-10-15T02:48:03.068Z,57.90
2018-10-15T02:50:30.595Z,57.90
2018-10-15T02:52:58.068Z,57.90
2018-10-15T02:55:25.556Z,57.90
2018-10-15T02:57:53.180Z,58.20
2018-10-15T03:00:20.791Z,58.10
2018-10-15T03:02:48.253Z,58.00
2018-10-15T03:05:15.749Z,58.00
2018-10-15T03:07:43.257Z,58.00
2018-10-15T03:10:10.772Z,58.10
2018-10-15T03:12:38.213Z,58.00
2018-10-15T03:15:06.915Z,58.00
2018-10-15T03:17:34.429Z,58.10
2018-10-15T03:20:02.006Z,58.10
2018-10-15T03:22:29.461Z,58.20
2018-10-15T03:24:56.935Z,58.20
2018-10-15T03:27:24.430Z,58.20
2018-10-15T03:29:51.938Z,58.20
2018-10-15T03:32:19.420Z,58.30
2018-10-15T03:34:46.934Z,58.30
2018-10-15T03:37:14.408Z,58.30
2018-10-15T03:39:42.116Z,58.30
2018-10-15T03:42:09.646Z,58.30
2018-10-15T03:44:37.130Z,58.30
2018-10-15T03:47:05.198Z,58.30
2018-10-15T03:49:32.709Z,58.30
2018-10-15T03:52:00.212Z,58.30
2018-10-15T03:54:27.716Z,58.50
2018-10-15T03:56:55.168Z,58.60
2018-10-15T03:59:22.673Z,58.50
2018-10-15T04:01:50.185Z,58.40
2018-10-15T04:04:17.663Z,58.40
2018-10-15T04:06:45.139Z,58.30
2018-10-15T04:09:12.813Z,58.30
2018-10-15T04:11:40.995Z,58.20
2018-10-15T04:14:09.177Z,58.20
2018-10-15T04:16:36.933Z,58.20
2018-10-15T04:19:05.066Z,58.20
2018-10-15T04:21:32.796Z,58.20
2018-10-15T04:24:00.259Z,58.20
2018-10-15T04:26:27.709Z,58.30
2018-10-15T04:28:55.185Z,58.20
2018-10-15T04:31:22.706Z,58.20
2018-10-15T04:33:50.190Z,58.10
2018-10-15T04:36:17.696Z,58.20
2018-10-15T04:38:45.186Z,58.70
2018-10-15T04:41:12.763Z,58.30
2018-10-15T04:43:40.228Z,58.20
2018-10-15T04:46:07.765Z,58.20
2018-10-15T04:48:35.233Z,58.10
2018-10-15T04:51:02.777Z,58.10
2018-10-15T04:53:30.269Z,58.10
2018-10-15T04:55:57.761Z,58.20
2018-10-15T04:58:25.377Z,58.30
2018-10-15T05:00:52.893Z,58.30
2018-10-15T05:03:20.616Z,58.40
2018-10-15T05:05:48.104Z,58.50
2018-10-15T05:08:15.593Z,58.40
2018-10-15T05:10:43.093Z,58.30
2018-10-15T05:13:10.560Z,58.30
2018-10-15T05:15:38.044Z,58.30
2018-10-15T05:18:05.622Z,58.40
2018-10-15T05:20:33.073Z,58.50
2018-10-15T05:23:00.622Z,58.60
2018-10-15T05:25:28.165Z,58.60
2018-10-15T05:27:55.692Z,58.50
2018-10-15T05:30:23.211Z,58.60
2018-10-15T05:32:50.732Z,58.50
2018-10-15T05:35:18.260Z,59.20
2018-10-15T05:37:45.981Z,58.60
2018-10-15T05:40:13.429Z,58.60
2018-10-15T05:42:40.941Z,58.80
2018-10-15T05:45:09.966Z,58.70
2018-10-15T05:47:37.545Z,58.70
2018-10-15T05:50:06.211Z,58.70
2018-10-15T05:52:33.725Z,58.70
2018-10-15T05:55:01.237Z,58.80
2018-10-15T05:57:29.100Z,58.80
2018-10-15T05:59:56.641Z,58.90
2018-10-15T06:02:24.187Z,59.20
2018-10-15T06:04:51.665Z,59.10
2018-10-15T06:07:19.157Z,59.00
2018-10-15T06:09:46.745Z,59.20
2018-10-15T06:12:14.412Z,59.20
2018-10-15T06:14:41.907Z,59.10
2018-10-15T06:17:09.392Z,59.10
2018-10-15T06:19:36.826Z,59.10
2018-10-15T06:22:04.829Z,59.00
2018-10-15T06:24:32.351Z,59.00
2018-10-15T06:26:59.808Z,58.90
2018-10-15T06:29:27.410Z,58.90
2018-10-15T06:31:55.009Z,58.70
2018-10-15T06:34:22.698Z,58.70
2018-10-15T06:36:50.404Z,58.80
2018-10-15T06:39:18.055Z,58.80
2018-10-15T06:41:45.664Z,58.80
2018-10-15T06:44:13.296Z,58.90
2018-10-15T06:46:40.963Z,59.10
2018-10-15T06:49:08.656Z,59.20
2018-10-15T06:51:36.204Z,59.40
2018-10-15T06:54:03.742Z,59.00
2018-10-15T06:56:31.434Z,59.30
2018-10-15T06:58:58.961Z,59.70
2018-10-15T07:01:26.518Z,61.70
2018-10-15T07:03:54.030Z,65.40
2018-10-15T07:06:21.531Z,59.50
2018-10-15T07:08:48.997Z,58.40
2018-10-15T07:11:16.740Z,52.80
2018-10-15T07:13:44.349Z,52.20
2018-10-15T07:16:11.830Z,47.90
2018-10-15T07:18:39.284Z,46.10
2018-10-15T07:21:06.842Z,41.60
2018-10-15T07:23:34.402Z,39.20
2018-10-15T07:26:01.992Z,38.50
2018-10-15T07:28:29.573Z,38.00
2018-10-15T07:30:56.967Z,36.50
2018-10-15T07:33:24.565Z,34.80
2018-10-15T07:35:52.084Z,34.00
2018-10-15T07:38:19.617Z,33.10
2018-10-15T07:40:47.061Z,31.50
2018-10-15T07:43:14.588Z,31.30
2018-10-15T07:45:42.107Z,30.00
2018-10-15T07:48:09.653Z,30.50
2018-10-15T07:50:37.209Z,30.60
2018-10-15T07:53:04.865Z,30.00
2018-10-15T07:55:32.354Z,30.00
2018-10-15T07:58:00.520Z,28.40
2018-10-15T08:00:28.056Z,27.20
2018-10-15T08:02:55.566Z,28.30
2018-10-15T08:05:23.714Z,28.40
2018-10-15T08:07:51.332Z,27.60
2018-10-15T08:10:18.999Z,28.00
2018-10-15T08:12:47.074Z,27.20
2018-10-15T08:15:15.821Z,26.50
2018-10-15T08:17:43.945Z,27.20
2018-10-15T08:20:13.757Z,26.70
2018-10-15T08:22:42.006Z,26.10
2018-10-15T08:25:09.596Z,25.50
2018-10-15T08:27:38.069Z,25.60
2018-10-15T08:30:07.441Z,25.40
2018-10-15T08:32:34.968Z,25.10
2018-10-15T08:35:02.529Z,24.60
2018-10-15T08:37:29.973Z,24.90
2018-10-15T08:39:57.450Z,24.50
2018-10-15T08:42:24.991Z,24.10
2018-10-15T08:44:52.444Z,24.00
2018-10-15T08:47:19.895Z,23.50
2018-10-15T08:49:47.415Z,24.10
2018-10-15T08:52:14.965Z,24.40
2018-10-15T08:54:42.480Z,24.40
2018-10-15T08:57:10.007Z,24.80
2018-10-15T08:59:37.512Z,25.50
2018-10-15T09:02:05.432Z,25.80
2018-10-15T09:04:33.486Z,26.80
2018-10-15T09:07:01.056Z,28.00
2018-10-15T09:09:28.636Z,29.30
2018-10-15T09:11:56.174Z,30.20
2018-10-15T09:14:23.775Z,31.40
2018-10-15T09:16:51.322Z,32.50
2018-10-15T09:19:18.829Z,33.30
2018-10-15T09:21:46.371Z,33.60
2018-10-15T09:24:14.049Z,34.30
2018-10-15T09:26:41.723Z,34.80
2018-10-15T09:29:09.217Z,35.30
2018-10-15T09:31:36.853Z,35.80
2018-10-15T09:34:04.489Z,35.80
2018-10-15T09:36:32.013Z,36.30
2018-10-15T09:38:59.636Z,36.50
2018-10-15T09:41:27.147Z,36.70
2018-10-15T09:43:54.606Z,36.90
2018-10-15T09:46:22.062Z,37.30
2018-10-15T09:48:49.650Z,37.40
2018-10-15T09:51:17.124Z,37.80
2018-10-15T09:53:44.552Z,38.20
2018-10-15T09:56:12.047Z,38.30
2018-10-15T09:58:39.592Z,38.70
2018-10-15T10:01:12.866Z,38.60
2018-10-15T10:03:40.366Z,38.70
2018-10-15T10:06:07.893Z,39.00
2018-10-15T10:08:35.434Z,39.00
2018-10-15T10:11:03.009Z,38.90
2018-10-15T10:13:30.603Z,39.30
2018-10-15T10:15:58.075Z,39.30
2018-10-15T10:18:25.668Z,39.50
2018-10-15T10:20:53.117Z,39.40
2018-10-15T10:23:20.577Z,39.20
2018-10-15T10:25:48.098Z,39.30
2018-10-15T10:28:15.613Z,39.30
2018-10-15T10:30:43.094Z,39.20
2018-10-15T10:33:10.611Z,39.10
2018-10-15T10:35:47.375Z,38.90
2018-10-15T10:38:18.064Z,38.70
2018-10-15T10:40:45.585Z,38.80
2018-10-15T10:43:13.073Z,38.80
2018-10-15T10:45:40.648Z,38.70
2018-10-15T10:48:08.219Z,38.70
2018-10-15T10:50:35.756Z,39.10
2018-10-15T10:53:03.348Z,39.30
2018-10-15T10:55:30.881Z,39.30
2018-10-15T10:57:58.456Z,39.20
2018-10-15T11:00:26.022Z,39.40
2018-10-15T11:02:53.595Z,39.40
2018-10-15T11:05:21.115Z,39.40
2018-10-15T11:07:48.676Z,39.30
2018-10-15T11:10:16.234Z,39.50
2018-10-15T11:12:43.747Z,39.50
2018-10-15T11:15:11.276Z,39.70
2018-10-15T11:17:38.895Z,40.10
2018-10-15T11:20:06.925Z,40.10
2018-10-15T11:22:34.507Z,40.20
2018-10-15T11:25:01.987Z,40.50
2018-10-15T11:27:29.506Z,40.40
2018-10-15T11:29:57.000Z,40.30
2018-10-15T11:32:24.510Z,40.10
2018-10-15T11:34:52.017Z,39.90
2018-10-15T11:37:19.507Z,39.80
2018-10-15T11:39:47.019Z,39.70
2018-10-15T11:42:14.578Z,40.00
2018-10-15T11:44:42.117Z,40.00
2018-10-15T11:47:09.754Z,40.00
2018-10-15T11:49:37.208Z,40.20
2018-10-15T11:52:04.756Z,40.30
2018-10-15T11:54:32.280Z,40.50
2018-10-15T11:56:59.828Z,40.60
2018-10-15T11:59:27.402Z,40.50
2018-10-15T12:01:54.890Z,40.60
2018-10-15T12:04:22.390Z,40.60
2018-10-15T12:06:49.892Z,40.70
2018-10-15T12:09:17.386Z,40.50
2018-10-15T12:11:44.869Z,40.60
2018-10-15T12:14:12.372Z,40.80
2018-10-15T12:16:39.919Z,40.80
2018-10-15T12:19:07.393Z,40.90
2018-10-15T12:21:34.909Z,40.90
2018-10-15T12:24:02.399Z,41.10
2018-10-15T12:26:29.948Z,41.20
2018-10-15T12:28:57.489Z,41.40
2018-10-15T12:31:25.014Z,41.50
2018-10-15T12:33:52.575Z,41.50
2018-10-15T12:36:20.175Z,41.50
2018-10-15T12:38:47.718Z,41.50
2018-10-15T12:41:15.302Z,41.50
2018-10-15T12:43:42.821Z,41.30
2018-10-15T12:46:10.325Z,41.20
2018-10-15T12:48:37.805Z,40.80
2018-10-15T12:51:05.316Z,40.70
2018-10-15T12:53:32.922Z,40.40
2018-10-15T12:56:00.340Z,40.30
2018-10-15T12:58:27.810Z,40.40
2018-10-15T13:00:55.328Z,40.30
2018-10-15T13:03:22.846Z,40.30
2018-10-15T13:05:50.355Z,40.40
2018-10-15T13:08:17.821Z,40.40
2018-10-15T13:10:45.335Z,40.60
2018-10-15T13:13:12.820Z,40.50
2018-10-15T13:15:40.333Z,40.50
2018-10-15T13:18:07.867Z,40.80
2018-10-15T13:20:35.377Z,40.70
2018-10-15T13:23:02.887Z,40.40
2018-10-15T13:25:30.534Z,40.00
2018-10-15T13:27:58.029Z,39.80
2018-10-15T13:30:25.593Z,39.40
2018-10-15T13:32:53.089Z,39.40
2018-10-15T13:35:20.634Z,39.30
2018-10-15T13:37:48.149Z,39.50
2018-10-15T13:40:15.694Z,39.30
2018-10-15T13:42:43.208Z,39.40
2018-10-15T13:45:11.893Z,39.60
2018-10-15T13:47:39.344Z,39.50
2018-10-15T13:50:08.022Z,39.60
2018-10-15T13:52:35.688Z,39.70
2018-10-15T13:55:03.329Z,40.00
2018-10-15T13:57:30.818Z,40.10
2018-10-15T13:59:58.386Z,40.20
2018-10-15T14:02:25.886Z,40.30
2018-10-15T14:04:53.367Z,40.40
2018-10-15T14:07:20.905Z,40.40
2018-10-15T14:09:48.432Z,40.60
2018-10-15T14:12:15.919Z,40.70
2018-10-15T14:14:43.420Z,40.70
2018-10-15T14:17:10.899Z,40.70
2018-10-15T14:19:38.387Z,40.80
2018-10-15T14:22:05.921Z,40.90
2018-10-15T14:24:33.465Z,41.10
2018-10-15T14:27:00.974Z,41.20
2018-10-15T14:29:28.513Z,41.30
2018-10-15T14:31:56.018Z,41.40
2018-10-15T14:34:23.528Z,41.60
2018-10-15T14:36:51.027Z,41.60
2018-10-15T14:39:18.526Z,41.80
2018-10-15T14:41:46.003Z,41.80
2018-10-15T14:44:13.520Z,42.00
2018-10-15T14:46:41.046Z,42.10
2018-10-15T14:49:08.542Z,42.20
2018-10-15T14:51:36.076Z,42.20
2018-10-15T14:54:03.704Z,42.40
2018-10-15T14:56:31.171Z,42.40
2018-10-15T14:58:58.741Z,42.50
2018-10-15T15:01:26.250Z,42.70
2018-10-15T15:03:53.788Z,42.70
2018-10-15T15:06:21.255Z,42.80
2018-10-15T15:08:48.913Z,43.10
2018-10-15T15:11:27.867Z,43.10
2018-10-15T15:14:07.755Z,43.30
2018-10-15T15:16:35.268Z,43.40
2018-10-15T15:19:02.839Z,43.40
2018-10-15T15:21:30.402Z,43.50
2018-10-15T15:23:57.807Z,43.60
2018-10-15T15:26:25.349Z,43.70
2018-10-15T15:28:52.925Z,43.80
2018-10-15T15:31:20.472Z,43.80
2018-10-15T15:33:48.324Z,44.00
2018-10-15T15:36:16.005Z,44.10
2018-10-15T15:38:43.458Z,44.30
2018-10-15T15:41:10.957Z,44.40
2018-10-15T15:43:39.342Z,44.40
2018-10-15T15:46:06.920Z,44.60
2018-10-15T15:48:34.416Z,44.70
2018-10-15T15:51:01.931Z,44.70
2018-10-15T15:53:29.424Z,44.90
2018-10-15T15:55:56.922Z,45.00
2018-10-15T15:58:24.445Z,45.00
2018-10-15T16:00:51.964Z,45.00
2018-10-15T16:03:19.454Z,45.10
2018-10-15T16:05:46.933Z,45.00
2018-10-15T16:08:14.455Z,45.10
2018-10-15T16:10:41.934Z,45.10
2018-10-15T16:13:09.447Z,45.20
2018-10-15T16:15:37.066Z,45.20
2018-10-15T16:18:04.858Z,45.20
2018-10-15T16:20:32.382Z,45.10
2018-10-15T16:22:59.881Z,45.10
2018-10-15T16:25:27.401Z,45.10
2018-10-15T16:27:54.877Z,45.20
2018-10-15T16:30:22.378Z,45.10
2018-10-15T16:32:49.827Z,45.20
2018-10-15T16:35:17.353Z,45.10
2018-10-15T16:37:44.824Z,45.10
2018-10-15T16:40:12.760Z,45.20
2018-10-15T16:42:40.854Z,45.20
2018-10-15T16:45:10.469Z,45.20
2018-10-15T16:47:38.473Z,45.20
2018-10-15T16:50:08.439Z,45.20
2018-10-15T16:52:36.401Z,45.30
2018-10-15T16:55:04.603Z,45.30
2018-10-15T16:57:32.091Z,45.30
2018-10-15T16:59:59.678Z,45.40
2018-10-15T17:02:27.226Z,45.60
2018-10-15T17:04:54.730Z,45.50
2018-10-15T17:07:22.442Z,45.40
2018-10-15T17:09:49.995Z,45.40
2018-10-15T17:12:17.631Z,45.50
2018-10-15T17:14:45.116Z,45.50
2018-10-15T17:17:12.795Z,45.60
2018-10-15T17:19:40.169Z,45.60
2018-10-15T17:22:07.727Z,45.70
2018-10-15T17:24:35.277Z,45.70
2018-10-15T17:27:02.947Z,45.70
2018-10-15T17:29:30.593Z,45.60
2018-10-15T17:31:58.190Z,45.50
2018-10-15T17:34:25.686Z,45.60
2018-10-15T17:36:53.205Z,45.60
2018-10-15T17:39:20.711Z,45.60
2018-10-15T17:41:48.308Z,45.60
2018-10-15T17:44:15.841Z,45.70
2018-10-15T17:46:43.413Z,45.70
2018-10-15T17:49:10.922Z,45.70
2018-10-15T17:51:38.466Z,45.70
2018-10-15T17:54:06.014Z,45.80
2018-10-15T17:56:33.559Z,45.90
2018-10-15T17:59:01.132Z,46.00
2018-10-15T18:01:29.047Z,46.50
2018-10-15T18:03:56.655Z,46.30
2018-10-15T18:06:24.218Z,46.40
2018-10-15T18:08:51.827Z,46.50
2018-10-15T18:11:20.534Z,46.70
2018-10-15T18:13:48.039Z,46.70
2018-10-15T18:16:15.908Z,46.80
2018-10-15T18:18:43.428Z,46.90
2018-10-15T18:21:10.961Z,47.10
2018-10-15T18:23:38.514Z,47.20
2018-10-15T18:26:06.110Z,47.40
2018-10-15T18:28:33.653Z,47.50
2018-10-15T18:31:01.150Z,47.50
2018-10-15T18:33:28.605Z,47.60
2018-10-15T18:35:56.111Z,47.60
2018-10-15T18:38:23.638Z,47.70
2018-10-15T18:40:51.143Z,47.70
2018-10-15T18:43:18.743Z,47.70
2018-10-15T18:45:46.322Z,47.80
2018-10-15T18:48:13.825Z,48.00
2018-10-15T18:50:41.396Z,48.20
2018-10-15T18:53:08.938Z,48.40
2018-10-15T18:55:36.463Z,48.80
2018-10-15T18:58:04.288Z,49.00
2018-10-15T19:00:31.824Z,49.20
2018-10-15T19:02:59.366Z,49.60
2018-10-15T19:05:26.940Z,49.70
2018-10-15T19:07:54.522Z,49.60
2018-10-15T19:10:22.020Z,49.60
2018-10-15T19:12:49.559Z,49.60
2018-10-15T19:15:17.134Z,50.30
2018-10-15T19:17:44.740Z,49.80
2018-10-15T19:20:13.761Z,50.00
2018-10-15T19:22:41.403Z,50.10
2018-10-15T19:25:09.101Z,50.00
2018-10-15T19:27:36.855Z,50.20
2018-10-15T19:30:05.994Z,50.40
2018-10-15T19:32:33.512Z,50.60
2018-10-15T19:35:01.011Z,50.70
2018-10-15T19:37:28.513Z,51.00
2018-10-15T19:39:56.175Z,51.20
2018-10-15T19:42:23.677Z,51.40
2018-10-15T19:44:51.239Z,51.60
2018-10-15T19:47:19.011Z,51.70
2018-10-15T19:49:46.613Z,51.90
2018-10-15T19:52:14.112Z,52.00
2018-10-15T19:54:41.685Z,52.30
2018-10-15T19:57:10.172Z,52.40
2018-10-15T19:59:37.775Z,52.60
2018-10-15T20:02:05.577Z,52.90
2018-10-15T20:04:33.572Z,52.80
2018-10-15T20:07:01.096Z,53.00
2018-10-15T20:09:28.862Z,53.20
2018-10-15T20:11:56.273Z,53.10
2018-10-15T20:14:23.806Z,53.20
2018-10-15T20:16:51.324Z,53.20
2018-10-15T20:19:18.854Z,53.30
2018-10-15T20:21:46.909Z,53.30
2018-10-15T20:24:14.480Z,53.30
2018-10-15T20:26:42.078Z,53.30
2018-10-15T20:29:09.643Z,53.40
2018-10-15T20:31:37.211Z,53.30
2018-10-15T20:34:05.105Z,53.40
2018-10-15T20:36:32.719Z,53.50
2018-10-15T20:39:00.501Z,53.70
2018-10-15T20:41:28.190Z,53.80
2018-10-15T20:43:55.783Z,54.00
2018-10-15T20:46:23.415Z,54.20
2018-10-15T20:48:50.901Z,54.30
2018-10-15T20:51:18.488Z,54.60
2018-10-15T20:53:46.038Z,54.70
2018-10-15T20:56:13.855Z,54.90
2018-10-15T20:58:41.430Z,55.10
2018-10-15T21:01:09.022Z,55.20
2018-10-15T21:03:36.550Z,56.00
2018-10-15T21:06:04.354Z,55.60
2018-10-15T21:08:31.968Z,55.80
2018-10-15T21:11:00.007Z,55.90
2018-10-15T21:13:27.813Z,56.00
2018-10-15T21:15:55.308Z,56.20
2018-10-15T21:18:22.795Z,56.30
2018-10-15T21:20:50.303Z,56.30
2018-10-15T21:23:17.872Z,56.40
2018-10-15T21:25:45.501Z,56.50
2018-10-15T21:28:13.892Z,56.70
2018-10-15T21:30:41.400Z,56.80
2018-10-15T21:33:08.905Z,57.00
2018-10-15T21:35:36.541Z,57.10
2018-10-15T21:38:04.039Z,57.20
2018-10-15T21:40:31.605Z,57.40
2018-10-15T21:42:59.484Z,57.50
2018-10-15T21:45:27.116Z,57.70
2018-10-15T21:47:54.578Z,57.90
2018-10-15T21:50:22.062Z,58.00
2018-10-15T21:52:49.596Z,58.10
2018-10-15T21:55:17.152Z,58.30
2018-10-15T21:57:44.673Z,58.40
2018-10-15T22:00:14.877Z,58.60
2018-10-15T22:02:42.753Z,58.70
2018-10-15T22:05:10.313Z,58.80
2018-10-15T22:07:38.939Z,58.90
2018-10-15T22:10:12.349Z,59.00
2018-10-15T22:12:40.439Z,59.10
2018-10-15T22:15:09.053Z,59.20
2018-10-15T22:17:36.619Z,59.20
2018-10-15T22:20:04.469Z,59.40
2018-10-15T22:22:31.990Z,59.50
2018-10-15T22:24:59.480Z,59.70
2018-10-15T22:27:27.109Z,59.80
2018-10-15T22:29:54.669Z,60.00
2018-10-15T22:32:22.124Z,60.20
2018-10-15T22:34:49.606Z,60.40
2018-10-15T22:37:17.090Z,60.70
2018-10-15T22:39:44.576Z,60.30
2018-10-15T22:42:12.008Z,61.10
2018-10-15T22:44:39.542Z,61.40
2018-10-15T22:47:07.041Z,61.60
2018-10-15T22:49:34.493Z,62.00
2018-10-15T22:52:02.036Z,62.50
2018-10-15T22:54:29.496Z,62.60
2018-10-15T22:56:56.941Z,62.80
2018-10-15T22:59:24.409Z,62.80
2018-10-15T23:01:51.921Z,62.50
2018-10-15T23:04:19.441Z,62.30
2018-10-15T23:06:46.959Z,62.40
2018-10-15T23:09:14.541Z,62.40
2018-10-15T23:11:42.063Z,62.50
2018-10-15T23:14:09.524Z,62.70
2018-10-15T23:16:37.303Z,62.70
2018-10-15T23:19:05.273Z,62.80
2018-10-15T23:21:32.784Z,62.80
2018-10-15T23:24:00.253Z,62.80
2018-10-15T23:26:27.740Z,62.70
2018-10-15T23:28:55.232Z,62.70
2018-10-15T23:31:22.790Z,62.60
2018-10-15T23:33:50.278Z,62.60
2018-10-15T23:36:17.732Z,62.60
2018-10-15T23:38:45.198Z,62.80
2018-10-15T23:41:12.712Z,63.00
2018-10-15T23:43:40.192Z,63.20
2018-10-15T23:46:08.704Z,63.40
2018-10-15T23:48:36.371Z,63.70
2018-10-15T23:51:03.848Z,63.70
2018-10-15T23:53:31.321Z,64.00
2018-10-15T23:55:58.836Z,64.20
2018-10-15T23:58:26.392Z,64.50
